Terminal Aerodrome Forecast
Issued by NWS Albany, NY

Home | Current Version | Previous Version | Text Only | Print | Product List | Glossary On
Versions: 1 2 3 4 5 6 7 8 9 10 11 12 13 14 15 16 17 18 19 20 21 22
935
FTUS41 KALY 171532 AAB
TAFGFL
TAF AMD
KGFL 171532Z 1716/1812 01007KT 1 1/2SM -SN SCT007 OVC020
      TEMPO 1716/1718 3/4SM -SN BR VV007
     FM171800 VRB03KT 5SM -SN SCT015 OVC025
     FM172100 29006KT P6SM SCT025 BKN050
     FM180000 24005KT P6SM SCT250=

USA.gov is the U.S. government's official web portal to all federal, state and local government web resources and services.